CPX228 Details

Departure: Ted Stevens Anchorage International Airport (PANC) at 0000 UTC
Arrival: Seattle-Tacoma International Airport (KSEA) at 0330 UTC
Route: NOEND4 NOEND LAIRE BKA DUGGS YYJ MARNR7
Notes:


Current Weather Information
PANC 191553Z 00000KT 10SM BKN025 BKN200 09/02 A2995 RMK AO2 SLP142 FU BKN025 T00890022
KSEA 191553Z 14006KT 10SM FEW014 BKN028 OVC037 17/12 A3001 RMK AO2 SLP167 T01720122